createdAt,value
2019-03-26T00:02:21.934Z,100341.91
2019-03-26T00:04:53.703Z,100341.78
2019-03-26T00:07:42.460Z,100339.53
2019-03-26T00:10:12.397Z,100339.53
2019-03-26T00:13:20.004Z,100345.50
2019-03-26T00:15:50.861Z,100350.00
2019-03-26T00:21:28.561Z,100348.40
2019-03-26T00:26:47.548Z,100332.41
2019-03-26T00:29:36.564Z,100332.75
2019-03-26T00:32:06.680Z,100332.75
2019-03-26T00:34:37.108Z,100317.40
2019-03-26T00:37:09.586Z,100317.70
2019-03-26T00:39:39.716Z,100307.58
2019-03-26T00:42:28.494Z,100310.40
2019-03-26T00:45:09.311Z,100319.84
2019-03-26T00:47:40.169Z,100319.84
2019-03-26T00:50:10.222Z,100318.67
2019-03-26T00:52:40.366Z,100312.03
2019-03-26T00:55:21.906Z,100315.70
2019-03-26T00:57:42.564Z,100306.44
2019-03-26T01:00:12.991Z,100316.03
2019-03-26T01:02:43.028Z,100316.57
2019-03-26T01:05:13.261Z,100316.57
2019-03-26T01:07:43.217Z,100315.78
2019-03-26T01:10:53.202Z,100309.20
2019-03-26T01:13:34.146Z,100297.16
2019-03-26T01:16:04.942Z,100297.16
2019-03-26T01:18:53.665Z,100285.32
2019-03-26T01:21:23.676Z,100285.32
2019-03-26T01:23:53.632Z,100274.91
2019-03-26T01:26:23.604Z,100274.91
2019-03-26T01:28:53.960Z,100274.13
2019-03-26T01:31:23.901Z,100274.13
2019-03-26T01:33:53.870Z,100276.62
2019-03-26T01:36:42.715Z,100274.47
2019-03-26T01:42:07.545Z,100279.75
2019-03-26T01:44:37.484Z,100265.22
2019-03-26T01:47:08.235Z,100278.09
2019-03-26T01:49:49.019Z,100277.78
2019-03-26T01:55:21.155Z,100275.64
2019-03-26T01:58:10.193Z,100266.73
2019-03-26T02:00:51.698Z,100269.97
2019-03-26T02:03:32.722Z,100269.97
2019-03-26T02:06:03.452Z,100265.48
2019-03-26T02:08:33.416Z,100261.61
2019-03-26T02:11:03.555Z,100261.61
2019-03-26T02:13:33.578Z,100265.53
2019-03-26T02:16:08.911Z,100269.30
2019-03-26T02:21:33.671Z,100255.17
2019-03-26T02:24:04.030Z,100262.80
2019-03-26T02:26:33.962Z,100253.36
2019-03-26T02:29:08.061Z,100259.14
2019-03-26T02:31:56.933Z,100269.35
2019-03-26T02:34:26.864Z,100269.35
2019-03-26T02:36:56.810Z,100276.12
2019-03-26T02:39:26.834Z,100276.12
2019-03-26T02:41:56.827Z,100260.88
2019-03-26T02:44:26.829Z,100260.88
2019-03-26T02:46:56.898Z,100268.70
2019-03-26T02:49:31.418Z,100264.25
2019-03-26T02:52:01.431Z,100269.04
2019-03-26T02:54:31.405Z,100269.04
2019-03-26T02:57:01.367Z,100265.57
2019-03-26T02:59:50.216Z,100271.34
2019-03-26T03:02:39.118Z,100264.06
2019-03-26T03:05:10.189Z,100264.06
2019-03-26T03:07:40.142Z,100270.80
2019-03-26T03:10:18.733Z,100272.56
2019-03-26T03:12:48.777Z,100265.47
2019-03-26T03:15:19.038Z,100264.78
2019-03-26T03:20:42.715Z,100252.31
2019-03-26T03:23:13.115Z,100250.81
2019-03-26T03:25:43.196Z,100250.81
2019-03-26T03:28:13.349Z,100246.78
2019-03-26T03:31:02.139Z,100261.09
2019-03-26T03:33:32.130Z,100261.09
2019-03-26T03:36:02.054Z,100265.69
2019-03-26T03:38:50.909Z,100258.88
2019-03-26T03:41:31.398Z,100264.50
2019-03-26T03:44:01.420Z,100272.55
2019-03-26T03:46:31.993Z,100267.57
2019-03-26T03:49:41.215Z,100275.77
2019-03-26T03:52:12.946Z,100267.86
2019-03-26T03:55:03.079Z,100265.37
2019-03-26T04:06:22.679Z,100276.14
2019-03-26T04:09:03.279Z,100284.45
2019-03-26T04:14:15.011Z,100285.20
2019-03-26T04:16:47.053Z,100285.13
2019-03-26T04:19:17.077Z,100277.74
2019-03-26T04:21:47.114Z,100277.74
2019-03-26T04:24:19.005Z,100268.02
2019-03-26T04:27:07.722Z,100280.59
2019-03-26T04:29:37.724Z,100293.73
2019-03-26T04:32:07.652Z,100293.73
2019-03-26T04:34:56.355Z,100287.34
2019-03-26T04:37:26.319Z,100287.34
2019-03-26T04:40:17.473Z,100287.53
2019-03-26T04:43:06.282Z,100291.34
2019-03-26T04:45:36.245Z,100286.06
2019-03-26T04:48:25.066Z,100299.45
2019-03-26T04:50:55.056Z,100299.45
2019-03-26T04:53:28.049Z,100286.25
2019-03-26T04:55:58.004Z,100300.59
2019-03-26T04:58:29.450Z,100301.77
2019-03-26T05:00:59.519Z,100301.77
2019-03-26T05:03:36.980Z,100301.77
2019-03-26T05:06:18.191Z,100306.06
2019-03-26T05:08:48.284Z,100301.95
2019-03-26T05:11:20.435Z,100292.67
2019-03-26T05:14:09.383Z,100302.83
2019-03-26T05:19:28.435Z,100296.95
2019-03-26T05:21:58.427Z,100296.95
2019-03-26T05:24:28.827Z,100284.28
2019-03-26T05:26:58.794Z,100290.23
2019-03-26T05:29:49.239Z,100295.72
2019-03-26T05:32:19.268Z,100300.55
2019-03-26T05:34:49.216Z,100300.25
2019-03-26T05:37:19.125Z,100300.25
2019-03-26T05:39:49.126Z,100312.02
2019-03-26T05:42:20.828Z,100309.42
2019-03-26T05:44:54.534Z,100309.42
2019-03-26T05:47:24.559Z,100313.73
2019-03-26T05:49:54.476Z,100319.05
2019-03-26T05:52:24.415Z,100321.05
2019-03-26T05:54:54.343Z,100333.62
2019-03-26T05:57:24.292Z,100302.77
2019-03-26T05:59:57.354Z,100322.95
2019-03-26T06:02:27.277Z,100304.45
2019-03-26T06:04:57.211Z,100316.41
2019-03-26T06:07:37.704Z,100319.41
2019-03-26T06:13:11.037Z,100315.63
2019-03-26T06:21:35.731Z,100328.74
2019-03-26T06:27:00.352Z,100327.63
2019-03-26T06:29:30.816Z,100326.32
2019-03-26T06:32:00.908Z,100336.59
2019-03-26T06:34:32.918Z,100340.25
2019-03-26T06:37:21.782Z,100333.66
2019-03-26T06:40:03.132Z,100339.94
2019-03-26T06:42:33.178Z,100339.94
2019-03-26T06:45:03.126Z,100345.08
2019-03-26T06:47:33.112Z,100350.73
2019-03-26T06:50:06.304Z,100361.33
2019-03-26T06:52:36.268Z,100341.49
2019-03-26T06:55:08.767Z,100352.92
2019-03-26T06:57:38.823Z,100347.62
2019-03-26T07:00:29.339Z,100342.67
2019-03-26T07:03:20.870Z,100342.67
2019-03-26T07:06:09.873Z,100356.41
2019-03-26T07:08:51.064Z,100356.41
2019-03-26T07:11:23.074Z,100383.39
2019-03-26T07:13:52.973Z,100397.01
2019-03-26T07:16:22.910Z,100394.20
2019-03-26T07:18:52.841Z,100401.14
2019-03-26T07:21:22.809Z,100383.94
2019-03-26T07:23:52.743Z,100381.78
2019-03-26T07:26:22.701Z,100416.73
2019-03-26T07:32:05.316Z,100422.20
2019-03-26T07:34:56.247Z,100434.97
2019-03-26T07:37:26.179Z,100437.97
2019-03-26T07:39:56.108Z,100446.08
2019-03-26T07:42:26.041Z,100459.16
2019-03-26T07:45:16.495Z,100461.48
2019-03-26T07:47:46.602Z,100476.23
2019-03-26T07:50:36.830Z,100472.27
2019-03-26T07:56:08.149Z,100474.40
2019-03-26T07:58:49.391Z,100481.34
2019-03-26T08:01:19.367Z,100496.95
2019-03-26T08:03:59.263Z,100489.47
2019-03-26T08:06:49.606Z,100505.59
2019-03-26T08:12:16.223Z,100527.80
2019-03-26T08:14:46.145Z,100544.73
2019-03-26T08:17:16.074Z,100547.56
2019-03-26T08:19:49.797Z,100547.73
2019-03-26T08:22:38.601Z,100553.16
2019-03-26T08:25:19.829Z,100567.07
2019-03-26T08:27:50.070Z,100566.08
2019-03-26T08:30:19.982Z,100568.27
2019-03-26T08:32:50.163Z,100584.86
2019-03-26T08:35:20.099Z,100577.59
2019-03-26T08:37:50.232Z,100568.45
2019-03-26T08:42:58.190Z,100592.86
2019-03-26T08:45:38.948Z,100587.19
2019-03-26T08:48:20.535Z,100593.04
2019-03-26T08:51:02.728Z,100595.19
2019-03-26T08:53:51.413Z,100594.44
2019-03-26T08:56:21.447Z,100621.98
2019-03-26T08:58:51.650Z,100630.58
2019-03-26T09:01:21.612Z,100633.41
2019-03-26T09:03:55.882Z,100632.65
2019-03-26T09:06:25.821Z,100630.14
2019-03-26T09:08:55.767Z,100639.28
2019-03-26T09:11:25.702Z,100629.59
2019-03-26T09:13:55.632Z,100658.02
2019-03-26T09:16:25.561Z,100659.69
2019-03-26T09:18:55.885Z,100666.84
2019-03-26T09:21:25.827Z,100673.91
2019-03-26T09:23:55.755Z,100679.44
2019-03-26T09:26:25.738Z,100693.39
2019-03-26T09:28:55.672Z,100692.23
2019-03-26T09:31:44.341Z,100707.52
2019-03-26T09:37:09.103Z,100716.67
2019-03-26T09:39:39.378Z,100721.33
2019-03-26T09:42:09.320Z,100727.47
2019-03-26T09:44:39.273Z,100730.96
2019-03-26T09:47:15.976Z,100716.17
2019-03-26T09:49:42.554Z,100731.30
2019-03-26T09:54:48.438Z,100730.14
2019-03-26T10:03:19.377Z,100732.69
2019-03-26T10:05:49.354Z,100734.41
2019-03-26T10:08:19.307Z,100744.28
2019-03-26T10:11:08.193Z,100758.09
2019-03-26T10:13:56.975Z,100741.02
2019-03-26T10:16:27.007Z,100754.05
2019-03-26T10:18:56.971Z,100759.75
2019-03-26T10:21:26.888Z,100762.41
2019-03-26T10:23:56.859Z,100761.41
2019-03-26T10:26:26.772Z,100784.06
2019-03-26T10:28:56.715Z,100777.60
2019-03-26T10:31:26.660Z,100772.97
2019-03-26T10:33:56.579Z,100772.49
2019-03-26T10:36:46.658Z,100778.14
2019-03-26T10:39:16.790Z,100776.32
2019-03-26T10:41:46.740Z,100782.61
2019-03-26T10:46:52.459Z,100783.26
2019-03-26T10:49:22.423Z,100790.72
2019-03-26T10:51:52.399Z,100788.05
2019-03-26T10:54:22.329Z,100785.70
2019-03-26T10:57:15.903Z,100792.34
2019-03-26T10:59:46.136Z,100813.44
2019-03-26T11:02:16.081Z,100810.27
2019-03-26T11:04:46.055Z,100801.23
2019-03-26T11:07:16.150Z,100801.53
2019-03-26T11:09:46.165Z,100808.29
2019-03-26T11:12:25.068Z,100805.06
2019-03-26T11:14:55.150Z,100812.34
2019-03-26T11:17:25.064Z,100807.19
2019-03-26T11:20:14.021Z,100815.16
2019-03-26T11:22:44.175Z,100816.95
2019-03-26T11:25:17.127Z,100816.34
2019-03-26T11:27:47.410Z,100819.34
2019-03-26T11:30:18.174Z,100822.17
2019-03-26T11:32:48.092Z,100830.98
2019-03-26T11:35:19.074Z,100822.00
2019-03-26T11:37:49.034Z,100823.53
2019-03-26T11:40:19.171Z,100833.98
2019-03-26T11:42:49.195Z,100835.31
2019-03-26T11:45:19.250Z,100845.42
2019-03-26T11:47:49.397Z,100860.27
2019-03-26T11:50:20.466Z,100850.12
2019-03-26T11:52:50.399Z,100852.69
2019-03-26T11:55:21.795Z,100847.34
2019-03-26T12:00:39.240Z,100865.27
2019-03-26T12:03:09.244Z,100869.59
2019-03-26T12:08:52.566Z,100869.50
2019-03-26T12:11:22.547Z,100871.20
2019-03-26T12:13:52.480Z,100865.88
2019-03-26T12:16:22.500Z,100871.17
2019-03-26T12:18:52.425Z,100865.52
2019-03-26T12:21:22.371Z,100869.67
2019-03-26T12:23:52.397Z,100873.34
2019-03-26T12:26:22.321Z,100868.00
2019-03-26T12:28:52.277Z,100861.67
2019-03-26T12:31:22.244Z,100872.83
2019-03-26T12:37:01.435Z,100871.06
2019-03-26T12:39:31.473Z,100876.52
2019-03-26T12:42:01.449Z,100882.88
2019-03-26T12:44:31.500Z,100881.20
2019-03-26T12:47:01.412Z,100897.30
2019-03-26T12:49:31.329Z,100901.27
2019-03-26T12:52:21.553Z,100896.19
2019-03-26T12:55:02.246Z,100896.42
2019-03-26T12:57:32.290Z,100896.84
2019-03-26T13:00:02.295Z,100907.20
2019-03-26T13:02:35.653Z,100905.07
2019-03-26T13:05:04.180Z,100906.95
2019-03-26T13:07:34.252Z,100914.13
2019-03-26T13:10:13.360Z,100897.97
2019-03-26T13:12:36.251Z,100918.11
2019-03-26T13:15:06.522Z,100918.61
2019-03-26T13:17:36.571Z,100911.41
2019-03-26T13:23:02.566Z,100913.95
2019-03-26T13:25:32.580Z,100908.75
2019-03-26T13:28:02.670Z,100906.08
2019-03-26T13:30:32.738Z,100909.91
2019-03-26T13:33:02.739Z,100916.73
2019-03-26T13:35:32.694Z,100921.02
2019-03-26T13:40:38.296Z,100922.81
2019-03-26T13:45:50.031Z,100927.92
2019-03-26T13:48:20.047Z,100926.91
2019-03-26T13:51:09.027Z,100919.75
2019-03-26T13:53:50.517Z,100928.06
2019-03-26T13:56:20.591Z,100932.58
2019-03-26T13:58:50.504Z,100938.30
2019-03-26T14:01:20.580Z,100929.09
2019-03-26T14:03:50.609Z,100939.08
2019-03-26T14:06:20.559Z,100927.75
2019-03-26T14:08:50.495Z,100923.41
2019-03-26T14:11:20.929Z,100923.41
2019-03-26T14:16:39.992Z,100929.56
2019-03-26T14:19:09.940Z,100910.42
2019-03-26T14:21:40.200Z,100910.24
2019-03-26T14:24:13.144Z,100907.56
2019-03-26T14:26:42.304Z,100901.51
2019-03-26T14:29:12.254Z,100887.33
2019-03-26T14:31:44.939Z,100905.65
2019-03-26T14:34:14.995Z,100900.67
2019-03-26T14:36:47.362Z,100896.98
2019-03-26T14:39:17.450Z,100899.61
2019-03-26T14:42:06.254Z,100908.08
2019-03-26T14:44:36.568Z,100906.41
2019-03-26T14:47:06.555Z,100905.39
2019-03-26T14:49:37.301Z,100909.19
2019-03-26T14:52:07.558Z,100916.01
2019-03-26T14:54:37.587Z,100914.67
2019-03-26T14:57:07.683Z,100910.34
2019-03-26T14:59:37.752Z,100908.64
2019-03-26T15:02:07.868Z,100914.25
2019-03-26T15:04:37.836Z,100917.12
2019-03-26T15:07:07.962Z,100920.41
2019-03-26T15:09:39.354Z,100914.87
2019-03-26T15:12:09.359Z,100915.57
2019-03-26T15:14:39.352Z,100916.42
2019-03-26T15:17:09.309Z,100906.32
2019-03-26T15:22:36.243Z,100912.82
2019-03-26T15:25:06.484Z,100916.80
2019-03-26T15:27:36.521Z,100927.34
2019-03-26T15:30:25.687Z,100930.84
2019-03-26T15:33:06.433Z,100929.83
2019-03-26T15:35:56.719Z,100936.33
2019-03-26T15:38:26.676Z,100940.35
2019-03-26T15:40:56.598Z,100938.58
2019-03-26T15:43:26.582Z,100941.25
2019-03-26T15:45:56.567Z,100950.27
2019-03-26T15:48:26.590Z,100941.01
2019-03-26T15:50:56.641Z,100944.52
2019-03-26T15:53:26.551Z,100944.23
2019-03-26T15:56:15.247Z,100946.24
2019-03-26T15:58:45.329Z,100952.73
2019-03-26T16:01:15.368Z,100950.07
2019-03-26T16:03:45.442Z,100944.58
2019-03-26T16:06:15.379Z,100944.41
2019-03-26T16:08:45.498Z,100955.58
2019-03-26T16:11:15.585Z,100955.07
2019-03-26T16:13:47.562Z,100956.42
2019-03-26T16:16:36.196Z,100952.95
2019-03-26T16:19:06.482Z,100955.28
2019-03-26T16:21:36.799Z,100959.99
2019-03-26T16:24:07.011Z,100961.83
2019-03-26T16:26:39.234Z,100967.99
2019-03-26T16:29:09.287Z,100968.33
2019-03-26T16:31:58.024Z,100974.20
2019-03-26T16:39:58.737Z,100974.28
2019-03-26T16:42:28.677Z,100979.45
2019-03-26T16:44:58.720Z,100983.29
2019-03-26T16:47:28.931Z,100980.97
2019-03-26T16:49:58.854Z,100983.13
2019-03-26T16:52:28.766Z,100993.10
2019-03-26T16:54:58.771Z,100992.89
2019-03-26T16:57:28.728Z,100997.53
2019-03-26T16:59:58.696Z,100990.86
2019-03-26T17:02:28.687Z,100999.79
2019-03-26T17:04:58.684Z,101004.41
2019-03-26T17:07:28.604Z,100996.23
2019-03-26T17:09:58.621Z,101002.98
2019-03-26T17:12:28.547Z,101004.75
2019-03-26T17:14:59.222Z,101004.38
2019-03-26T17:20:16.447Z,101007.91
2019-03-26T17:22:46.565Z,101019.64
2019-03-26T17:25:16.643Z,101018.88
2019-03-26T17:27:46.879Z,101018.88
2019-03-26T17:30:19.381Z,101034.90
2019-03-26T17:32:49.534Z,101034.90
2019-03-26T17:35:19.464Z,101033.78
2019-03-26T17:37:59.488Z,101033.78
2019-03-26T17:40:21.427Z,101040.22
2019-03-26T17:42:51.451Z,101024.05
2019-03-26T17:45:40.225Z,101044.92
2019-03-26T17:48:28.797Z,101044.92
2019-03-26T17:50:58.827Z,101043.40
2019-03-26T17:53:28.991Z,101045.36
2019-03-26T17:56:17.748Z,101060.58
2019-03-26T17:59:06.686Z,101052.32
2019-03-26T18:01:47.649Z,101058.26
2019-03-26T18:04:17.756Z,101058.26
2019-03-26T18:06:47.688Z,101058.73
2019-03-26T18:12:13.068Z,101058.13
2019-03-26T18:14:43.126Z,101064.73
2019-03-26T18:17:16.789Z,101067.82
2019-03-26T18:19:46.827Z,101069.23
2019-03-26T18:22:17.159Z,101067.05
2019-03-26T18:24:47.119Z,101076.27
2019-03-26T18:27:17.091Z,101073.67
2019-03-26T18:30:09.213Z,101073.61
2019-03-26T18:32:39.289Z,101067.32
2019-03-26T18:35:09.441Z,101067.32
2019-03-26T18:37:39.377Z,101076.86
2019-03-26T18:40:48.345Z,101076.86
2019-03-26T18:43:18.421Z,101085.44
2019-03-26T18:45:48.403Z,101078.89
2019-03-26T18:48:24.317Z,101080.50
2019-03-26T18:50:54.201Z,101084.45
2019-03-26T18:53:24.261Z,101080.55
2019-03-26T18:56:13.081Z,101086.96
2019-03-26T19:01:26.263Z,101091.91
2019-03-26T19:04:15.121Z,101085.19
2019-03-26T19:07:03.784Z,101085.19
2019-03-26T19:09:33.724Z,101089.99
2019-03-26T19:12:03.679Z,101093.89
2019-03-26T19:14:33.757Z,101089.72
2019-03-26T19:17:03.713Z,101094.84
2019-03-26T19:19:33.699Z,101097.27
2019-03-26T19:22:03.693Z,101094.41
2019-03-26T19:27:33.069Z,101092.39
2019-03-26T19:32:47.916Z,101091.07
2019-03-26T19:35:29.182Z,101089.40
2019-03-26T19:40:35.056Z,101091.52
2019-03-26T19:43:11.382Z,101092.49
2019-03-26T19:45:37.103Z,101097.09
2019-03-26T19:48:08.151Z,101095.06
2019-03-26T19:50:38.134Z,101090.54
2019-03-26T19:53:08.483Z,101096.94
2019-03-26T19:55:38.735Z,101094.73
2019-03-26T19:58:09.480Z,101092.72
2019-03-26T20:00:39.428Z,101093.34
2019-03-26T20:03:09.517Z,101093.34
2019-03-26T20:05:39.482Z,101092.99
2019-03-26T20:08:09.398Z,101091.94
2019-03-26T20:10:39.363Z,101098.91
2019-03-26T20:13:09.278Z,101089.44
2019-03-26T20:15:39.365Z,101091.77
2019-03-26T20:18:09.415Z,101089.25
2019-03-26T20:20:39.363Z,101088.91
2019-03-26T20:23:09.311Z,101089.88
2019-03-26T20:25:39.317Z,101088.20
2019-03-26T20:28:09.368Z,101088.48
2019-03-26T20:30:39.377Z,101088.40
2019-03-26T20:33:09.432Z,101093.51
2019-03-26T20:35:39.384Z,101093.70
2019-03-26T20:40:59.471Z,101092.59
2019-03-26T20:43:37.282Z,101095.52
2019-03-26T20:46:01.412Z,101092.65
2019-03-26T20:48:42.784Z,101086.66
2019-03-26T20:51:12.719Z,101084.37
2019-03-26T20:53:42.696Z,101093.27
2019-03-26T20:56:12.685Z,101096.53
2019-03-26T20:59:02.765Z,101089.04
2019-03-26T21:01:32.724Z,101089.04
2019-03-26T21:06:52.325Z,101081.42
2019-03-26T21:09:22.287Z,101081.42
2019-03-26T21:11:52.844Z,101088.08
2019-03-26T21:14:22.886Z,101088.08
2019-03-26T21:16:52.823Z,101090.80
2019-03-26T21:19:22.830Z,101091.67
2019-03-26T21:21:53.251Z,101086.81
2019-03-26T21:24:23.180Z,101093.82
2019-03-26T21:26:53.197Z,101096.23
2019-03-26T21:32:28.101Z,101065.27
2019-03-26T21:34:58.202Z,101073.03
2019-03-26T21:37:46.988Z,101073.03
2019-03-26T21:40:36.245Z,101067.53
2019-03-26T21:43:06.314Z,101063.83
2019-03-26T21:45:55.152Z,101070.02
2019-03-26T21:48:43.834Z,101068.47
2019-03-26T21:51:13.872Z,101068.47
2019-03-26T21:54:04.432Z,101070.80
2019-03-26T21:56:34.483Z,101070.80
2019-03-26T21:59:04.611Z,101065.96
2019-03-26T22:01:34.733Z,101081.80
2019-03-26T22:07:47.301Z,101086.43
2019-03-26T22:15:45.432Z,101099.13
2019-03-26T22:18:26.085Z,101096.03
2019-03-26T22:21:09.290Z,101096.03
2019-03-26T22:23:58.090Z,101101.84
2019-03-26T22:26:38.719Z,101099.81
2019-03-26T22:29:08.886Z,101099.81
2019-03-26T22:31:57.746Z,101092.62
2019-03-26T22:34:38.659Z,101096.00
2019-03-26T22:37:09.387Z,101095.41
2019-03-26T22:39:58.113Z,101098.09
2019-03-26T22:42:46.867Z,101107.16
2019-03-26T22:45:27.590Z,101103.78
2019-03-26T22:47:57.795Z,101103.78
2019-03-26T22:50:46.704Z,101095.80
2019-03-26T22:53:16.750Z,101095.80
2019-03-26T22:55:46.849Z,101078.98
2019-03-26T22:58:16.935Z,101083.81
2019-03-26T23:01:06.097Z,101054.56
2019-03-26T23:06:34.429Z,101065.25
2019-03-26T23:09:06.903Z,101065.25
2019-03-26T23:11:55.580Z,101064.16
2019-03-26T23:14:45.028Z,101081.09
2019-03-26T23:17:08.354Z,101081.09
2019-03-26T23:19:38.307Z,101072.61
2019-03-26T23:22:08.244Z,101071.40
2019-03-26T23:24:38.312Z,101070.13
2019-03-26T23:27:08.414Z,101072.78
2019-03-26T23:29:38.340Z,101077.37
2019-03-26T23:32:08.473Z,101072.25
2019-03-26T23:37:39.248Z,101074.41
2019-03-26T23:43:04.348Z,101058.27
2019-03-26T23:45:53.349Z,101060.15
2019-03-26T23:48:23.302Z,101052.64
2019-03-26T23:50:53.261Z,101041.13
2019-03-26T23:53:23.205Z,101029.51
2019-03-26T23:55:53.258Z,101035.15
2019-03-26T23:58:23.183Z,101035.02
